createdAt,value
2022-09-06T00:01:39.279Z,21.00
2022-09-06T00:04:06.365Z,21.00
2022-09-06T00:06:33.311Z,20.90
2022-09-06T00:09:00.774Z,21.00
2022-09-06T00:11:27.717Z,21.00
2022-09-06T00:13:54.649Z,21.00
2022-09-06T00:16:27.276Z,21.00
2022-09-06T00:18:56.919Z,21.00
2022-09-06T00:21:26.702Z,20.90
2022-09-06T00:23:54.185Z,21.00
2022-09-06T00:26:22.921Z,21.00
2022-09-06T00:28:50.022Z,20.90
2022-09-06T00:31:22.703Z,20.90
2022-09-06T00:33:50.158Z,20.90
2022-09-06T00:36:17.937Z,20.90
2022-09-06T00:38:45.543Z,20.90
2022-09-06T00:41:14.546Z,20.90
2022-09-06T00:43:42.757Z,20.90
2022-09-06T00:46:13.395Z,20.90
2022-09-06T00:48:41.638Z,20.90
2022-09-06T00:51:11.335Z,20.90
2022-09-06T00:53:38.474Z,20.90
2022-09-06T00:56:05.937Z,20.90
2022-09-06T00:58:32.853Z,20.80
2022-09-06T01:01:00.058Z,20.80
2022-09-06T01:03:27.612Z,20.80
2022-09-06T01:06:06.245Z,20.80
2022-09-06T01:08:47.848Z,20.80
2022-09-06T01:11:41.432Z,20.80
2022-09-06T01:14:11.063Z,20.80
2022-09-06T01:16:51.105Z,20.80
2022-09-06T01:19:23.832Z,20.70
2022-09-06T01:21:54.818Z,20.80
2022-09-06T01:24:28.965Z,20.80
2022-09-06T01:27:20.725Z,20.80
2022-09-06T01:30:02.132Z,20.80
2022-09-06T01:32:44.110Z,20.80
2022-09-06T01:35:23.243Z,20.80
2022-09-06T01:37:50.363Z,20.80
2022-09-06T01:40:17.367Z,20.80
2022-09-06T01:42:47.067Z,20.80
2022-09-06T01:45:21.170Z,20.80
2022-09-06T01:48:06.592Z,20.80
2022-09-06T01:51:11.197Z,20.70
2022-09-06T01:53:50.259Z,20.80
2022-09-06T01:56:43.416Z,20.70
2022-09-06T01:59:31.203Z,20.70
2022-09-06T02:02:13.252Z,20.60
2022-09-06T02:04:55.004Z,20.60
2022-09-06T02:07:31.092Z,20.60
2022-09-06T02:10:10.665Z,20.70
2022-09-06T02:12:40.596Z,20.70
2022-09-06T02:15:24.971Z,20.60
2022-09-06T02:18:04.307Z,20.60
2022-09-06T02:20:34.776Z,20.60
2022-09-06T02:23:05.886Z,20.60
2022-09-06T02:25:39.496Z,20.50
2022-09-06T02:28:08.821Z,20.50
2022-09-06T02:30:40.859Z,20.50
2022-09-06T02:33:13.939Z,20.40
2022-09-06T02:35:46.623Z,20.40
2022-09-06T02:38:14.452Z,20.40
2022-09-06T02:40:43.149Z,20.40
2022-09-06T02:43:10.467Z,20.40
2022-09-06T02:45:37.789Z,20.40
2022-09-06T02:48:04.980Z,20.30
2022-09-06T02:50:31.849Z,20.20
2022-09-06T02:53:11.022Z,20.20
2022-09-06T02:55:38.875Z,20.20
2022-09-06T02:58:07.173Z,20.20
2022-09-06T03:00:34.649Z,20.10
2022-09-06T03:03:01.595Z,20.10
2022-09-06T03:05:28.840Z,20.10
2022-09-06T03:07:56.272Z,20.10
2022-09-06T03:10:23.709Z,20.10
2022-09-06T03:12:50.651Z,20.10
2022-09-06T03:15:17.666Z,20.10
2022-09-06T03:17:45.004Z,20.10
2022-09-06T03:20:13.145Z,20.10
2022-09-06T03:22:40.797Z,20.10
2022-09-06T03:25:08.986Z,20.00
2022-09-06T03:27:36.170Z,19.90
2022-09-06T03:30:03.795Z,19.90
2022-09-06T03:32:30.658Z,19.90
2022-09-06T03:34:57.545Z,20.00
2022-09-06T03:37:24.402Z,20.00
2022-09-06T03:39:51.340Z,20.00
2022-09-06T03:42:18.299Z,20.00
2022-09-06T03:44:45.155Z,20.00
2022-09-06T03:47:11.993Z,19.90
2022-09-06T03:49:39.602Z,19.90
2022-09-06T03:52:06.591Z,19.90
2022-09-06T03:54:33.431Z,19.90
2022-09-06T03:57:00.296Z,19.90
2022-09-06T03:59:27.222Z,19.90
2022-09-06T04:01:54.205Z,19.90
2022-09-06T04:04:21.077Z,19.90
2022-09-06T04:06:47.940Z,19.90
2022-09-06T04:09:15.612Z,19.90
2022-09-06T04:11:45.025Z,19.90
2022-09-06T04:14:12.154Z,19.90
2022-09-06T04:16:39.131Z,19.90
2022-09-06T04:19:06.079Z,20.00
2022-09-06T04:21:33.295Z,20.00
2022-09-06T04:24:00.331Z,20.00
2022-09-06T04:26:27.217Z,19.90
2022-09-06T04:28:54.091Z,19.80
2022-09-06T04:31:21.055Z,19.80
2022-09-06T04:33:47.977Z,19.80
2022-09-06T04:36:14.946Z,19.70
2022-09-06T04:38:44.207Z,19.70
2022-09-06T04:41:14.135Z,19.70
2022-09-06T04:43:41.132Z,19.70
2022-09-06T04:46:29.158Z,19.70
2022-09-06T04:48:57.186Z,19.70
2022-09-06T04:51:25.289Z,19.70
2022-09-06T04:53:52.523Z,19.70
2022-09-06T04:56:24.722Z,19.70
2022-09-06T04:58:54.079Z,19.70
2022-09-06T05:01:21.309Z,19.80
2022-09-06T05:03:48.425Z,19.70
2022-09-06T05:06:23.519Z,19.70
2022-09-06T05:08:51.031Z,19.70
2022-09-06T05:11:18.037Z,19.70
2022-09-06T05:13:46.960Z,19.70
2022-09-06T05:16:14.206Z,19.70
2022-09-06T05:18:41.137Z,19.70
2022-09-06T05:21:08.367Z,19.60
2022-09-06T05:23:35.266Z,19.60
2022-09-06T05:26:02.621Z,19.70
2022-09-06T05:28:29.798Z,19.60
2022-09-06T05:31:10.862Z,19.70
2022-09-06T05:33:38.290Z,19.70
2022-09-06T05:36:06.837Z,19.70
2022-09-06T05:38:34.047Z,19.70
2022-09-06T05:41:01.130Z,19.70
2022-09-06T05:43:27.969Z,19.60
2022-09-06T05:45:54.920Z,19.70
2022-09-06T05:48:21.815Z,19.70
2022-09-06T05:50:48.688Z,19.70
2022-09-06T05:53:15.519Z,19.80
2022-09-06T05:55:43.115Z,19.70
2022-09-06T05:58:10.232Z,19.70
2022-09-06T06:00:37.106Z,19.70
2022-09-06T06:03:03.960Z,19.70
2022-09-06T06:05:30.938Z,19.70
2022-09-06T06:07:59.636Z,19.70
2022-09-06T06:10:26.508Z,19.70
2022-09-06T06:12:53.359Z,19.80
2022-09-06T06:15:20.233Z,19.80
2022-09-06T06:17:47.071Z,19.90
2022-09-06T06:20:14.063Z,19.90
2022-09-06T06:22:41.056Z,20.00
2022-09-06T06:25:08.236Z,20.00
2022-09-06T06:27:37.191Z,20.10
2022-09-06T06:30:04.987Z,20.10
2022-09-06T06:32:31.904Z,20.10
2022-09-06T06:34:58.789Z,20.20
2022-09-06T06:37:25.636Z,20.20
2022-09-06T06:39:52.615Z,20.30
2022-09-06T06:42:19.477Z,20.30
2022-09-06T06:44:46.341Z,20.40
2022-09-06T06:47:13.183Z,20.40
2022-09-06T06:49:40.128Z,20.50
2022-09-06T06:52:07.151Z,20.40
2022-09-06T06:54:34.039Z,20.50
2022-09-06T06:57:00.973Z,20.50
2022-09-06T06:59:27.927Z,20.60
2022-09-06T07:01:54.841Z,20.60
2022-09-06T07:04:21.837Z,20.70
2022-09-06T07:12:25.443Z,20.80
2022-09-06T07:14:52.477Z,20.70
2022-09-06T07:17:19.321Z,20.70
2022-09-06T07:22:33.116Z,20.70
2022-09-06T07:25:00.001Z,20.80
2022-09-06T07:30:14.419Z,20.90
2022-09-06T07:32:41.370Z,21.00
2022-09-06T07:35:08.790Z,21.00
2022-09-06T07:37:35.699Z,21.10
2022-09-06T07:40:04.129Z,21.10
2022-09-06T07:42:36.254Z,21.20
2022-09-06T07:45:03.924Z,21.20
2022-09-06T07:55:53.543Z,21.40
2022-09-06T07:58:20.482Z,21.50
2022-09-06T08:00:47.351Z,21.60
2022-09-06T08:03:14.281Z,21.60
2022-09-06T08:11:14.967Z,21.90
2022-09-06T08:13:42.382Z,22.00
2022-09-06T08:16:11.380Z,22.00
2022-09-06T08:18:38.669Z,22.10
2022-09-06T08:21:12.751Z,22.10
2022-09-06T08:23:48.145Z,22.20
2022-09-06T08:26:16.843Z,22.30
2022-09-06T08:28:44.304Z,22.30
2022-09-06T08:31:15.942Z,22.40
2022-09-06T08:33:43.904Z,22.50
2022-09-06T08:36:11.705Z,22.50
2022-09-06T08:38:38.618Z,22.60
2022-09-06T08:41:28.340Z,22.60
2022-09-06T08:46:56.899Z,22.70
2022-09-06T08:49:27.068Z,22.80
2022-09-06T08:52:00.207Z,22.80
2022-09-06T08:54:40.085Z,22.90
2022-09-06T08:57:20.534Z,22.90
2022-09-06T08:59:48.488Z,23.00
2022-09-06T09:02:17.410Z,23.10
2022-09-06T09:04:54.805Z,23.10
2022-09-06T09:07:36.958Z,23.20
2022-09-06T09:10:10.121Z,23.30
2022-09-06T09:12:44.281Z,23.30
2022-09-06T09:15:14.707Z,23.40
2022-09-06T09:17:42.109Z,23.40
2022-09-06T09:20:09.336Z,23.40
2022-09-06T09:22:37.139Z,23.40
2022-09-06T09:25:05.527Z,23.50
2022-09-06T09:27:33.477Z,23.60
2022-09-06T09:32:50.645Z,23.70
2022-09-06T09:35:33.564Z,23.70
2022-09-06T09:38:12.434Z,23.70
2022-09-06T09:40:58.504Z,23.80
2022-09-06T09:43:35.881Z,23.70
2022-09-06T09:46:29.884Z,23.70
2022-09-06T09:49:21.625Z,23.70
2022-09-06T09:52:07.680Z,23.70
2022-09-06T09:54:40.434Z,23.60
2022-09-06T09:57:11.679Z,23.60
2022-09-06T09:59:50.161Z,23.60
2022-09-06T10:02:31.823Z,23.60
2022-09-06T10:05:07.360Z,23.60
2022-09-06T10:07:34.901Z,23.50
2022-09-06T10:10:06.385Z,23.50
2022-09-06T10:12:40.864Z,23.60
2022-09-06T10:15:10.337Z,23.60
2022-09-06T10:17:47.790Z,23.60
2022-09-06T10:20:15.068Z,23.70
2022-09-06T10:23:15.979Z,23.70
2022-09-06T10:25:49.125Z,23.70
2022-09-06T10:28:29.601Z,23.70
2022-09-06T10:31:14.228Z,23.80
2022-09-06T10:34:15.093Z,23.80
2022-09-06T10:36:52.898Z,23.90
2022-09-06T10:39:45.239Z,23.90
2022-09-06T10:42:37.515Z,23.90
2022-09-06T10:45:20.980Z,23.80
2022-09-06T10:48:02.534Z,23.80
2022-09-06T10:50:35.901Z,23.70
2022-09-06T10:53:22.526Z,23.70
2022-09-06T10:56:01.794Z,23.70
2022-09-06T11:01:36.950Z,23.60
2022-09-06T11:04:12.901Z,23.60
2022-09-06T11:06:48.075Z,23.60
2022-09-06T11:09:39.722Z,23.60
2022-09-06T11:12:48.841Z,23.70
2022-09-06T11:15:18.343Z,23.70
2022-09-06T11:18:06.555Z,23.70
2022-09-06T11:20:39.645Z,23.70
2022-09-06T11:23:24.645Z,23.80
2022-09-06T11:26:00.274Z,23.80
2022-09-06T11:28:52.540Z,23.80
2022-09-06T11:34:38.129Z,23.70
2022-09-06T11:37:21.421Z,23.70
2022-09-06T11:42:53.280Z,23.70
2022-09-06T11:45:39.769Z,23.80
2022-09-06T11:48:54.493Z,23.80
2022-09-06T11:51:45.582Z,23.80
2022-09-06T11:54:24.245Z,23.90
2022-09-06T11:57:16.686Z,23.90
2022-09-06T12:00:04.687Z,23.90
2022-09-06T12:02:41.193Z,23.90
2022-09-06T12:05:15.603Z,23.90
2022-09-06T12:08:10.418Z,23.80
2022-09-06T12:10:40.144Z,23.80
2022-09-06T12:13:33.058Z,23.80
2022-09-06T12:16:00.669Z,23.80
2022-09-06T12:18:49.333Z,23.90
2022-09-06T12:21:47.638Z,23.90
2022-09-06T12:24:36.040Z,23.80
2022-09-06T12:27:20.062Z,23.90
2022-09-06T12:30:01.927Z,23.80
2022-09-06T12:32:37.798Z,23.80
2022-09-06T12:38:05.293Z,23.80
2022-09-06T12:40:37.879Z,23.80
2022-09-06T12:43:05.638Z,23.80
2022-09-06T12:45:33.087Z,23.80
2022-09-06T12:48:09.041Z,23.90
2022-09-06T12:50:36.543Z,24.00
2022-09-06T12:53:17.262Z,24.00
2022-09-06T12:55:45.634Z,24.00
2022-09-06T12:58:12.891Z,24.10
2022-09-06T13:00:51.483Z,24.00
2022-09-06T13:03:54.107Z,24.00
2022-09-06T13:06:27.284Z,24.00
2022-09-06T13:08:57.289Z,24.00
2022-09-06T13:11:34.703Z,24.00
2022-09-06T13:14:13.826Z,23.90
2022-09-06T13:16:50.825Z,23.90
2022-09-06T13:19:39.311Z,23.90
2022-09-06T13:22:08.745Z,23.90
2022-09-06T13:24:35.633Z,24.00
2022-09-06T13:27:26.091Z,24.00
2022-09-06T13:30:01.505Z,24.00
2022-09-06T13:32:29.144Z,24.10
2022-09-06T13:34:58.744Z,24.20
2022-09-06T13:37:28.309Z,24.20
2022-09-06T13:39:57.718Z,24.20
2022-09-06T13:42:33.523Z,24.20
2022-09-06T13:45:28.046Z,24.20
2022-09-06T13:48:07.950Z,24.20
2022-09-06T13:50:42.776Z,24.20
2022-09-06T13:53:09.624Z,24.20
2022-09-06T13:55:36.596Z,24.20
2022-09-06T13:58:04.024Z,24.30
2022-09-06T14:00:31.335Z,24.30
2022-09-06T14:02:59.069Z,24.30
2022-09-06T14:05:26.089Z,24.30
2022-09-06T14:07:52.945Z,24.30
2022-09-06T14:10:22.223Z,24.30
2022-09-06T14:12:49.201Z,24.30
2022-09-06T14:15:16.235Z,24.30
2022-09-06T14:17:43.102Z,24.40
2022-09-06T14:20:10.499Z,24.40
2022-09-06T14:22:37.383Z,24.40
2022-09-06T14:25:04.683Z,24.50
2022-09-06T14:27:32.860Z,24.50
2022-09-06T14:29:59.844Z,24.50
2022-09-06T14:32:26.940Z,24.50
2022-09-06T14:34:53.794Z,24.50
2022-09-06T14:37:22.201Z,24.50
2022-09-06T14:39:49.389Z,24.50
2022-09-06T14:42:16.690Z,24.50
2022-09-06T14:44:43.705Z,24.50
2022-09-06T14:47:10.658Z,24.60
2022-09-06T14:49:37.517Z,24.60
2022-09-06T14:52:04.381Z,24.60
2022-09-06T14:54:31.236Z,24.60
2022-09-06T14:56:58.124Z,24.60
2022-09-06T14:59:25.038Z,24.50
2022-09-06T15:01:52.272Z,24.50
2022-09-06T15:04:19.206Z,24.50
2022-09-06T15:06:48.008Z,24.50
2022-09-06T15:09:16.378Z,24.50
2022-09-06T15:11:51.775Z,24.50
2022-09-06T15:14:24.877Z,24.50
2022-09-06T15:16:56.236Z,24.40
2022-09-06T15:19:24.955Z,24.40
2022-09-06T15:21:52.159Z,24.30
2022-09-06T15:24:19.238Z,24.30
2022-09-06T15:26:46.278Z,24.30
2022-09-06T15:29:14.156Z,24.20
2022-09-06T15:31:42.202Z,24.20
2022-09-06T15:34:10.318Z,24.10
2022-09-06T15:36:37.794Z,24.10
2022-09-06T15:39:05.383Z,24.20
2022-09-06T15:41:35.722Z,24.20
2022-09-06T15:44:10.608Z,24.20
2022-09-06T15:46:50.152Z,24.20
2022-09-06T15:49:26.917Z,24.30
2022-09-06T15:51:56.288Z,24.30
2022-09-06T15:54:41.820Z,24.30
2022-09-06T15:57:09.436Z,24.30
2022-09-06T15:59:36.469Z,24.30
2022-09-06T16:02:03.682Z,24.30
2022-09-06T16:04:30.746Z,24.40
2022-09-06T16:06:57.625Z,24.40
2022-09-06T16:09:24.641Z,24.50
2022-09-06T16:11:51.486Z,24.50
2022-09-06T16:14:18.640Z,24.50
2022-09-06T16:16:45.705Z,24.50
2022-09-06T16:19:13.184Z,24.40
2022-09-06T16:21:41.912Z,24.40
2022-09-06T16:24:11.947Z,24.40
2022-09-06T16:26:44.806Z,24.50
2022-09-06T16:29:13.712Z,24.40
2022-09-06T16:31:41.143Z,24.50
2022-09-06T16:34:09.640Z,24.50
2022-09-06T16:36:36.746Z,24.50
2022-09-06T16:39:04.665Z,24.50
2022-09-06T16:41:46.265Z,24.50
2022-09-06T16:44:16.958Z,24.50
2022-09-06T16:46:48.865Z,24.50
2022-09-06T16:49:17.460Z,24.40
2022-09-06T16:51:44.613Z,24.40
2022-09-06T16:54:11.541Z,24.40
2022-09-06T16:56:39.545Z,24.30
2022-09-06T16:59:08.689Z,24.30
2022-09-06T17:01:37.869Z,24.30
2022-09-06T17:04:05.856Z,24.30
2022-09-06T17:06:34.224Z,24.30
2022-09-06T17:09:01.202Z,24.30
2022-09-06T17:11:29.429Z,24.30
2022-09-06T17:13:57.427Z,24.30
2022-09-06T17:16:44.123Z,24.30
2022-09-06T17:19:11.596Z,24.30
2022-09-06T17:21:40.150Z,24.20
2022-09-06T17:24:08.032Z,24.20
2022-09-06T17:26:39.457Z,24.20
2022-09-06T17:29:07.371Z,24.20
2022-09-06T17:31:35.020Z,24.20
2022-09-06T17:34:02.106Z,24.30
2022-09-06T17:36:31.767Z,24.20
2022-09-06T17:39:03.403Z,24.30
2022-09-06T17:41:37.129Z,24.30
2022-09-06T17:44:05.808Z,24.30
2022-09-06T17:46:33.214Z,24.20
2022-09-06T17:49:00.191Z,24.20
2022-09-06T17:51:27.194Z,24.20
2022-09-06T17:53:54.334Z,24.20
2022-09-06T17:56:21.545Z,24.20
2022-09-06T17:58:54.630Z,24.20
2022-09-06T18:01:23.116Z,24.20
2022-09-06T18:03:50.531Z,24.20
2022-09-06T18:06:20.562Z,24.20
2022-09-06T18:08:50.592Z,24.20
2022-09-06T18:11:22.417Z,24.20
2022-09-06T18:14:02.201Z,24.20
2022-09-06T18:16:30.503Z,24.20
2022-09-06T18:19:00.266Z,24.20
2022-09-06T18:21:29.147Z,24.20
2022-09-06T18:23:56.876Z,24.20
2022-09-06T18:26:24.527Z,24.20
2022-09-06T18:28:53.509Z,24.20
2022-09-06T18:31:23.233Z,24.20
2022-09-06T18:33:50.557Z,24.20
2022-09-06T18:36:18.720Z,24.20
2022-09-06T18:38:46.265Z,24.10
2022-09-06T18:41:33.772Z,24.20
2022-09-06T18:44:04.876Z,24.10
2022-09-06T18:46:34.211Z,24.20
2022-09-06T18:49:01.174Z,24.10
2022-09-06T18:51:28.394Z,24.10
2022-09-06T18:53:59.612Z,24.10
2022-09-06T18:56:27.400Z,24.10
2022-09-06T18:58:59.646Z,24.00
2022-09-06T19:01:29.258Z,24.00
2022-09-06T19:03:57.768Z,24.00
2022-09-06T19:06:24.967Z,24.00
2022-09-06T19:08:53.908Z,24.00
2022-09-06T19:11:22.244Z,24.00
2022-09-06T19:13:54.581Z,24.00
2022-09-06T19:16:23.351Z,24.00
2022-09-06T19:18:51.137Z,24.00
2022-09-06T19:21:20.025Z,24.00
2022-09-06T19:23:54.063Z,24.00
2022-09-06T19:26:22.516Z,24.00
2022-09-06T19:28:54.296Z,23.90
2022-09-06T19:31:21.704Z,23.90
2022-09-06T19:33:50.231Z,23.90
2022-09-06T19:36:18.729Z,23.80
2022-09-06T19:39:03.154Z,23.70
2022-09-06T19:41:31.855Z,23.60
2022-09-06T19:43:59.346Z,23.50
2022-09-06T19:46:27.690Z,23.40
2022-09-06T19:48:56.260Z,23.30
2022-09-06T19:51:24.181Z,23.20
2022-09-06T19:53:53.636Z,23.10
2022-09-06T19:56:33.718Z,23.00
2022-09-06T19:59:08.691Z,22.90
2022-09-06T20:01:37.171Z,22.80
2022-09-06T20:04:07.054Z,22.70
2022-09-06T20:06:34.927Z,22.70
2022-09-06T20:09:03.820Z,22.70
2022-09-06T20:11:32.898Z,22.60
2022-09-06T20:14:00.732Z,22.60
2022-09-06T20:16:28.459Z,22.60
2022-09-06T20:18:55.907Z,22.60
2022-09-06T20:21:23.006Z,22.50
2022-09-06T20:23:52.257Z,22.50
2022-09-06T20:26:20.136Z,22.50
2022-09-06T20:28:47.556Z,22.50
2022-09-06T20:31:17.265Z,22.50
2022-09-06T20:33:49.401Z,22.50
2022-09-06T20:36:18.331Z,22.40
2022-09-06T20:38:47.316Z,22.40
2022-09-06T20:41:19.396Z,22.40
2022-09-06T20:43:54.192Z,22.30
2022-09-06T20:46:23.156Z,22.30
2022-09-06T20:48:50.573Z,22.20
2022-09-06T20:51:21.915Z,22.20
2022-09-06T20:53:53.157Z,22.10
2022-09-06T20:56:24.511Z,22.10
2022-09-06T20:59:00.815Z,22.10
2022-09-06T21:01:30.055Z,22.10
2022-09-06T21:03:59.426Z,22.20
2022-09-06T21:06:27.995Z,22.10
2022-09-06T21:08:55.919Z,22.10
2022-09-06T21:11:23.798Z,22.10
2022-09-06T21:13:52.656Z,22.10
2022-09-06T21:16:24.534Z,22.10
2022-09-06T21:19:00.016Z,22.10
2022-09-06T21:21:28.409Z,22.10
2022-09-06T21:23:56.116Z,22.10
2022-09-06T21:26:23.655Z,22.10
2022-09-06T21:28:50.803Z,22.10
2022-09-06T21:31:25.071Z,22.10
2022-09-06T21:33:58.654Z,22.00
2022-09-06T21:36:34.063Z,22.10
2022-09-06T21:39:04.264Z,22.10
2022-09-06T21:41:31.889Z,22.10
2022-09-06T21:44:00.584Z,22.00
2022-09-06T21:46:33.240Z,22.00
2022-09-06T21:49:08.981Z,22.00
2022-09-06T21:51:36.287Z,22.00
2022-09-06T21:54:04.814Z,22.00
2022-09-06T21:56:34.143Z,22.00
2022-09-06T21:59:01.363Z,22.00
2022-09-06T22:01:31.743Z,22.00
2022-09-06T22:03:59.919Z,22.00
2022-09-06T22:06:29.209Z,22.00
2022-09-06T22:09:01.318Z,21.90
2022-09-06T22:11:32.957Z,21.90
2022-09-06T22:14:04.153Z,22.00
2022-09-06T22:16:33.357Z,21.90
2022-09-06T22:19:00.371Z,22.00
2022-09-06T22:21:27.595Z,22.00
2022-09-06T22:23:59.763Z,22.00
2022-09-06T22:26:29.215Z,22.00
2022-09-06T22:28:58.254Z,22.00
2022-09-06T22:31:26.885Z,22.00
2022-09-06T22:33:54.624Z,22.00
2022-09-06T22:36:21.961Z,22.00
2022-09-06T22:38:48.861Z,22.00
2022-09-06T22:41:15.747Z,22.00
2022-09-06T22:43:42.876Z,22.10
2022-09-06T22:46:11.235Z,22.10
2022-09-06T22:48:38.336Z,22.10
2022-09-06T22:51:08.765Z,22.10
2022-09-06T22:53:36.047Z,22.10
2022-09-06T22:56:03.204Z,22.10
2022-09-06T22:58:30.359Z,22.10
2022-09-06T23:01:05.051Z,22.10
2022-09-06T23:03:32.071Z,22.00
2022-09-06T23:06:02.700Z,22.00
2022-09-06T23:08:30.434Z,22.00
2022-09-06T23:10:57.345Z,22.00
2022-09-06T23:13:24.262Z,22.00
2022-09-06T23:15:51.125Z,22.00
2022-09-06T23:18:18.008Z,22.00
2022-09-06T23:20:44.864Z,22.00
2022-09-06T23:23:11.857Z,22.00
2022-09-06T23:25:39.292Z,22.00
2022-09-06T23:28:07.007Z,22.00
2022-09-06T23:30:38.013Z,22.00
2022-09-06T23:33:04.995Z,21.90
2022-09-06T23:35:31.982Z,21.90
2022-09-06T23:37:58.896Z,21.90
2022-09-06T23:40:25.967Z,21.90
2022-09-06T23:42:52.868Z,21.80
2022-09-06T23:45:19.785Z,21.80
2022-09-06T23:47:46.641Z,21.80
2022-09-06T23:50:13.574Z,21.80
2022-09-06T23:52:40.420Z,21.70
2022-09-06T23:55:09.412Z,21.70
2022-09-06T23:57:36.340Z,21.70
